sensor_id;sensor_type;location;lat;lon;timestamp;P1;durP1;ratioP1;P2;durP2;ratioP2
12194;SDS011;27023;42.680;23.132;2023-01-10T00:02:03;34.27;;;32.53;;
12194;SDS011;27023;42.680;23.132;2023-01-10T00:04:30;35.43;;;33.60;;
12194;SDS011;27023;42.680;23.132;2023-01-10T00:06:57;32.83;;;31.13;;
12194;SDS011;27023;42.680;23.132;2023-01-10T00:09:23;35.97;;;34.10;;
12194;SDS011;27023;42.680;23.132;2023-01-10T00:11:50;40.03;;;38.00;;
12194;SDS011;27023;42.680;23.132;2023-01-10T00:14:34;40.60;;;38.47;;
12194;SDS011;27023;42.680;23.132;2023-01-10T00:17:01;46.97;;;44.53;;
12194;SDS011;27023;42.680;23.132;2023-01-10T00:19:29;36.37;;;34.53;;
12194;SDS011;27023;42.680;23.132;2023-01-10T00:21:56;34.97;;;33.30;;
12194;SDS011;27023;42.680;23.132;2023-01-10T00:24:37;36.03;;;34.20;;
12194;SDS011;27023;42.680;23.132;2023-01-10T00:27:05;36.67;;;34.77;;
12194;SDS011;27023;42.680;23.132;2023-01-10T00:29:33;22.63;;;21.67;;
12194;SDS011;27023;42.680;23.132;2023-01-10T00:32:02;21.67;;;20.80;;
12194;SDS011;27023;42.680;23.132;2023-01-10T00:34:30;20.63;;;19.67;;
12194;SDS011;27023;42.680;23.132;2023-01-10T00:36:56;19.97;;;19.17;;
12194;SDS011;27023;42.680;23.132;2023-01-10T00:39:23;26.60;;;25.30;;
12194;SDS011;27023;42.680;23.132;2023-01-10T00:41:51;19.70;;;18.80;;
12194;SDS011;27023;42.680;23.132;2023-01-10T00:44:35;21.07;;;20.07;;
12194;SDS011;27023;42.680;23.132;2023-01-10T00:47:02;23.43;;;22.37;;
12194;SDS011;27023;42.680;23.132;2023-01-10T00:49:30;24.33;;;23.23;;
12194;SDS011;27023;42.680;23.132;2023-01-10T00:51:56;22.27;;;21.17;;
12194;SDS011;27023;42.680;23.132;2023-01-10T00:54:24;18.37;;;17.50;;
12194;SDS011;27023;42.680;23.132;2023-01-10T00:56:50;20.43;;;19.53;;
12194;SDS011;27023;42.680;23.132;2023-01-10T00:59:17;18.83;;;18.03;;
12194;SDS011;27023;42.680;23.132;2023-01-10T01:01:44;18.07;;;17.37;;
12194;SDS011;27023;42.680;23.132;2023-01-10T01:04:10;25.60;;;24.40;;
12194;SDS011;27023;42.680;23.132;2023-01-10T01:06:38;21.57;;;20.57;;
12194;SDS011;27023;42.680;23.132;2023-01-10T01:09:05;27.37;;;25.90;;
12194;SDS011;27023;42.680;23.132;2023-01-10T01:11:32;20.30;;;19.40;;
12194;SDS011;27023;42.680;23.132;2023-01-10T01:13:58;22.53;;;21.43;;
12194;SDS011;27023;42.680;23.132;2023-01-10T01:16:25;22.87;;;21.77;;
12194;SDS011;27023;42.680;23.132;2023-01-10T01:18:52;26.87;;;25.43;;
12194;SDS011;27023;42.680;23.132;2023-01-10T01:21:18;24.77;;;23.50;;
12194;SDS011;27023;42.680;23.132;2023-01-10T01:23:47;22.37;;;21.30;;
12194;SDS011;27023;42.680;23.132;2023-01-10T01:26:15;23.63;;;22.43;;
12194;SDS011;27023;42.680;23.132;2023-01-10T01:28:41;21.73;;;20.57;;
12194;SDS011;27023;42.680;23.132;2023-01-10T01:31:08;25.50;;;24.20;;
12194;SDS011;27023;42.680;23.132;2023-01-10T01:33:35;26.33;;;25.00;;
12194;SDS011;27023;42.680;23.132;2023-01-10T01:36:04;25.47;;;24.03;;
12194;SDS011;27023;42.680;23.132;2023-01-10T01:38:33;23.50;;;22.30;;
12194;SDS011;27023;42.680;23.132;2023-01-10T01:41:01;21.37;;;20.37;;
12194;SDS011;27023;42.680;23.132;2023-01-10T01:43:29;24.97;;;23.73;;
12194;SDS011;27023;42.680;23.132;2023-01-10T01:45:56;28.00;;;26.70;;
12194;SDS011;27023;42.680;23.132;2023-01-10T01:48:28;26.63;;;25.43;;
12194;SDS011;27023;42.680;23.132;2023-01-10T01:51:01;26.57;;;25.23;;
12194;SDS011;27023;42.680;23.132;2023-01-10T01:53:33;26.23;;;25.00;;
12194;SDS011;27023;42.680;23.132;2023-01-10T01:56:08;28.23;;;26.90;;
12194;SDS011;27023;42.680;23.132;2023-01-10T01:58:40;27.30;;;26.10;;
12194;SDS011;27023;42.680;23.132;2023-01-10T02:01:12;31.73;;;30.13;;
12194;SDS011;27023;42.680;23.132;2023-01-10T02:03:40;35.30;;;33.50;;
12194;SDS011;27023;42.680;23.132;2023-01-10T02:06:10;34.50;;;32.77;;
12194;SDS011;27023;42.680;23.132;2023-01-10T02:08:38;39.73;;;37.70;;
12194;SDS011;27023;42.680;23.132;2023-01-10T02:11:11;33.23;;;31.57;;
12194;SDS011;27023;42.680;23.132;2023-01-10T02:13:39;36.07;;;34.30;;
12194;SDS011;27023;42.680;23.132;2023-01-10T02:16:08;40.30;;;38.30;;
12194;SDS011;27023;42.680;23.132;2023-01-10T02:18:35;39.57;;;37.53;;
12194;SDS011;27023;42.680;23.132;2023-01-10T02:21:12;47.77;;;45.17;;
12194;SDS011;27023;42.680;23.132;2023-01-10T02:23:56;34.03;;;32.30;;
12194;SDS011;27023;42.680;23.132;2023-01-10T02:26:47;34.63;;;32.80;;
12194;SDS011;27023;42.680;23.132;2023-01-10T02:32:28;33.40;;;31.83;;
12194;SDS011;27023;42.680;23.132;2023-01-10T02:35:09;40.67;;;38.63;;
12194;SDS011;27023;42.680;23.132;2023-01-10T02:37:50;43.27;;;40.93;;
12194;SDS011;27023;42.680;23.132;2023-01-10T02:40:25;49.83;;;47.13;;
12194;SDS011;27023;42.680;23.132;2023-01-10T02:43:00;47.53;;;45.17;;
12194;SDS011;27023;42.680;23.132;2023-01-10T02:45:35;32.87;;;31.23;;
12194;SDS011;27023;42.680;23.132;2023-01-10T02:48:07;31.73;;;30.23;;
12194;SDS011;27023;42.680;23.132;2023-01-10T02:50:51;34.93;;;33.10;;
12194;SDS011;27023;42.680;23.132;2023-01-10T02:53:22;34.90;;;33.13;;
12194;SDS011;27023;42.680;23.132;2023-01-10T02:55:57;36.40;;;34.53;;
12194;SDS011;27023;42.680;23.132;2023-01-10T02:58:46;47.17;;;44.73;;
12194;SDS011;27023;42.680;23.132;2023-01-10T03:01:28;42.60;;;40.37;;
12194;SDS011;27023;42.680;23.132;2023-01-10T03:04:07;34.27;;;32.70;;
12194;SDS011;27023;42.680;23.132;2023-01-10T03:06:42;36.40;;;34.53;;
12194;SDS011;27023;42.680;23.132;2023-01-10T03:09:15;42.00;;;39.83;;
12194;SDS011;27023;42.680;23.132;2023-01-10T03:11:50;36.90;;;35.07;;
12194;SDS011;27023;42.680;23.132;2023-01-10T03:14:24;33.40;;;31.77;;
12194;SDS011;27023;42.680;23.132;2023-01-10T03:16:54;33.70;;;32.00;;
12194;SDS011;27023;42.680;23.132;2023-01-10T03:19:25;32.40;;;30.77;;
12194;SDS011;27023;42.680;23.132;2023-01-10T03:21:57;31.90;;;30.13;;
12194;SDS011;27023;42.680;23.132;2023-01-10T03:24:28;36.63;;;34.87;;
12194;SDS011;27023;42.680;23.132;2023-01-10T03:27:00;33.80;;;32.20;;
12194;SDS011;27023;42.680;23.132;2023-01-10T03:29:33;41.80;;;39.57;;
12194;SDS011;27023;42.680;23.132;2023-01-10T03:32:05;38.27;;;36.30;;
12194;SDS011;27023;42.680;23.132;2023-01-10T03:34:37;36.90;;;34.90;;
12194;SDS011;27023;42.680;23.132;2023-01-10T03:37:07;34.30;;;32.50;;
12194;SDS011;27023;42.680;23.132;2023-01-10T03:39:40;36.70;;;34.80;;
12194;SDS011;27023;42.680;23.132;2023-01-10T03:42:14;29.53;;;28.07;;
12194;SDS011;27023;42.680;23.132;2023-01-10T03:44:49;40.07;;;37.97;;
12194;SDS011;27023;42.680;23.132;2023-01-10T03:47:21;35.13;;;33.43;;
12194;SDS011;27023;42.680;23.132;2023-01-10T03:49:55;33.80;;;32.13;;
12194;SDS011;27023;42.680;23.132;2023-01-10T03:52:25;35.97;;;34.13;;
12194;SDS011;27023;42.680;23.132;2023-01-10T03:54:52;34.17;;;32.47;;
12194;SDS011;27023;42.680;23.132;2023-01-10T03:57:20;32.10;;;30.53;;
12194;SDS011;27023;42.680;23.132;2023-01-10T03:59:49;32.87;;;31.27;;
12194;SDS011;27023;42.680;23.132;2023-01-10T04:02:18;29.00;;;27.57;;
12194;SDS011;27023;42.680;23.132;2023-01-10T04:04:45;33.90;;;32.20;;
12194;SDS011;27023;42.680;23.132;2023-01-10T04:07:13;33.80;;;32.03;;
12194;SDS011;27023;42.680;23.132;2023-01-10T04:09:40;31.77;;;30.10;;
12194;SDS011;27023;42.680;23.132;2023-01-10T04:12:07;29.67;;;28.17;;
12194;SDS011;27023;42.680;23.132;2023-01-10T04:14:33;28.63;;;27.13;;
12194;SDS011;27023;42.680;23.132;2023-01-10T04:17:00;29.57;;;28.00;;
12194;SDS011;27023;42.680;23.132;2023-01-10T04:19:27;33.33;;;31.53;;
12194;SDS011;27023;42.680;23.132;2023-01-10T04:21:53;34.17;;;32.30;;
12194;SDS011;27023;42.680;23.132;2023-01-10T04:24:21;31.87;;;30.27;;
12194;SDS011;27023;42.680;23.132;2023-01-10T04:26:48;38.73;;;36.83;;
12194;SDS011;27023;42.680;23.132;2023-01-10T04:29:15;29.77;;;28.27;;
12194;SDS011;27023;42.680;23.132;2023-01-10T04:31:42;30.27;;;28.83;;
12194;SDS011;27023;42.680;23.132;2023-01-10T04:34:09;32.47;;;30.83;;
12194;SDS011;27023;42.680;23.132;2023-01-10T04:36:36;29.30;;;27.80;;
12194;SDS011;27023;42.680;23.132;2023-01-10T04:39:03;29.87;;;28.43;;
12194;SDS011;27023;42.680;23.132;2023-01-10T04:41:31;29.93;;;28.50;;
12194;SDS011;27023;42.680;23.132;2023-01-10T04:43:58;31.10;;;29.63;;
12194;SDS011;27023;42.680;23.132;2023-01-10T04:46:24;33.40;;;31.47;;
12194;SDS011;27023;42.680;23.132;2023-01-10T04:48:51;30.00;;;28.60;;
12194;SDS011;27023;42.680;23.132;2023-01-10T04:51:18;30.80;;;29.20;;
12194;SDS011;27023;42.680;23.132;2023-01-10T04:53:44;33.77;;;32.17;;
12194;SDS011;27023;42.680;23.132;2023-01-10T04:56:14;34.40;;;32.70;;
12194;SDS011;27023;42.680;23.132;2023-01-10T04:58:45;35.20;;;33.50;;
12194;SDS011;27023;42.680;23.132;2023-01-10T05:01:13;34.70;;;32.87;;
12194;SDS011;27023;42.680;23.132;2023-01-10T05:03:40;36.93;;;34.93;;
12194;SDS011;27023;42.680;23.132;2023-01-10T05:06:07;34.13;;;32.40;;
12194;SDS011;27023;42.680;23.132;2023-01-10T05:08:34;38.93;;;36.77;;
12194;SDS011;27023;42.680;23.132;2023-01-10T05:11:01;37.43;;;35.63;;
12194;SDS011;27023;42.680;23.132;2023-01-10T05:13:28;31.97;;;30.43;;
12194;SDS011;27023;42.680;23.132;2023-01-10T05:15:56;33.10;;;31.50;;
12194;SDS011;27023;42.680;23.132;2023-01-10T05:18:23;29.97;;;28.47;;
12194;SDS011;27023;42.680;23.132;2023-01-10T05:20:50;31.77;;;30.23;;
12194;SDS011;27023;42.680;23.132;2023-01-10T05:23:17;37.57;;;35.73;;
12194;SDS011;27023;42.680;23.132;2023-01-10T05:25:44;37.63;;;35.83;;
12194;SDS011;27023;42.680;23.132;2023-01-10T05:28:11;36.17;;;34.27;;
12194;SDS011;27023;42.680;23.132;2023-01-10T05:30:37;31.63;;;30.03;;
12194;SDS011;27023;42.680;23.132;2023-01-10T05:33:05;37.50;;;35.60;;
12194;SDS011;27023;42.680;23.132;2023-01-10T05:35:32;31.57;;;30.07;;
12194;SDS011;27023;42.680;23.132;2023-01-10T05:37:59;33.53;;;31.73;;
12194;SDS011;27023;42.680;23.132;2023-01-10T05:40:26;26.90;;;25.50;;
12194;SDS011;27023;42.680;23.132;2023-01-10T05:42:52;38.87;;;36.87;;
12194;SDS011;27023;42.680;23.132;2023-01-10T05:45:19;35.97;;;34.00;;
12194;SDS011;27023;42.680;23.132;2023-01-10T05:47:46;37.33;;;35.33;;
12194;SDS011;27023;42.680;23.132;2023-01-10T05:50:14;37.67;;;35.77;;
12194;SDS011;27023;42.680;23.132;2023-01-10T05:52:41;40.47;;;38.37;;
12194;SDS011;27023;42.680;23.132;2023-01-10T05:55:08;46.70;;;44.23;;
12194;SDS011;27023;42.680;23.132;2023-01-10T05:57:35;45.80;;;43.37;;
12194;SDS011;27023;42.680;23.132;2023-01-10T06:00:02;45.50;;;43.10;;
12194;SDS011;27023;42.680;23.132;2023-01-10T06:02:29;41.80;;;39.57;;
12194;SDS011;27023;42.680;23.132;2023-01-10T06:04:56;37.07;;;35.03;;
12194;SDS011;27023;42.680;23.132;2023-01-10T06:07:24;33.73;;;32.00;;
12194;SDS011;27023;42.680;23.132;2023-01-10T06:09:51;28.53;;;26.97;;
12194;SDS011;27023;42.680;23.132;2023-01-10T06:12:17;33.43;;;31.73;;
12194;SDS011;27023;42.680;23.132;2023-01-10T06:14:44;32.60;;;31.00;;
12194;SDS011;27023;42.680;23.132;2023-01-10T06:17:10;36.23;;;34.40;;
12194;SDS011;27023;42.680;23.132;2023-01-10T06:19:37;31.33;;;29.80;;
12194;SDS011;27023;42.680;23.132;2023-01-10T06:22:04;30.67;;;29.23;;
12194;SDS011;27023;42.680;23.132;2023-01-10T06:24:32;33.03;;;31.43;;
12194;SDS011;27023;42.680;23.132;2023-01-10T06:26:59;37.70;;;35.73;;
12194;SDS011;27023;42.680;23.132;2023-01-10T06:29:25;35.53;;;33.83;;
12194;SDS011;27023;42.680;23.132;2023-01-10T06:31:52;43.43;;;41.30;;
12194;SDS011;27023;42.680;23.132;2023-01-10T06:34:19;34.67;;;32.97;;
12194;SDS011;27023;42.680;23.132;2023-01-10T06:36:45;43.73;;;41.53;;
12194;SDS011;27023;42.680;23.132;2023-01-10T06:39:12;48.27;;;45.63;;
12194;SDS011;27023;42.680;23.132;2023-01-10T06:41:40;39.63;;;37.50;;
12194;SDS011;27023;42.680;23.132;2023-01-10T06:44:07;36.13;;;34.27;;
12194;SDS011;27023;42.680;23.132;2023-01-10T06:46:34;31.43;;;29.80;;
12194;SDS011;27023;42.680;23.132;2023-01-10T06:49:01;41.77;;;39.60;;
12194;SDS011;27023;42.680;23.132;2023-01-10T06:51:27;36.07;;;34.27;;
12194;SDS011;27023;42.680;23.132;2023-01-10T06:53:54;42.37;;;40.23;;
12194;SDS011;27023;42.680;23.132;2023-01-10T06:56:21;33.73;;;32.03;;
12194;SDS011;27023;42.680;23.132;2023-01-10T06:58:49;37.17;;;35.33;;
12194;SDS011;27023;42.680;23.132;2023-01-10T07:01:16;39.07;;;37.13;;
12194;SDS011;27023;42.680;23.132;2023-01-10T07:03:44;38.57;;;36.67;;
12194;SDS011;27023;42.680;23.132;2023-01-10T07:06:12;39.80;;;37.63;;
12194;SDS011;27023;42.680;23.132;2023-01-10T07:08:39;26.10;;;24.83;;
12194;SDS011;27023;42.680;23.132;2023-01-10T07:11:07;26.17;;;24.87;;
12194;SDS011;27023;42.680;23.132;2023-01-10T07:13:34;24.60;;;23.43;;
12194;SDS011;27023;42.680;23.132;2023-01-10T07:16:03;27.67;;;26.37;;
12194;SDS011;27023;42.680;23.132;2023-01-10T07:18:32;28.83;;;27.27;;
12194;SDS011;27023;42.680;23.132;2023-01-10T07:21:00;31.63;;;29.90;;
12194;SDS011;27023;42.680;23.132;2023-01-10T07:23:26;35.73;;;33.87;;
12194;SDS011;27023;42.680;23.132;2023-01-10T07:25:55;44.63;;;42.20;;
12194;SDS011;27023;42.680;23.132;2023-01-10T07:28:21;32.00;;;30.33;;
12194;SDS011;27023;42.680;23.132;2023-01-10T07:30:48;32.37;;;30.70;;
12194;SDS011;27023;42.680;23.132;2023-01-10T07:33:16;45.67;;;43.30;;
12194;SDS011;27023;42.680;23.132;2023-01-10T07:35:43;34.67;;;32.87;;
12194;SDS011;27023;42.680;23.132;2023-01-10T07:38:10;28.90;;;27.23;;
12194;SDS011;27023;42.680;23.132;2023-01-10T07:40:36;28.40;;;27.00;;
12194;SDS011;27023;42.680;23.132;2023-01-10T07:43:03;31.33;;;29.63;;
12194;SDS011;27023;42.680;23.132;2023-01-10T07:45:30;27.63;;;26.23;;
12194;SDS011;27023;42.680;23.132;2023-01-10T07:47:56;30.67;;;29.07;;
12194;SDS011;27023;42.680;23.132;2023-01-10T07:50:25;39.03;;;37.10;;
12194;SDS011;27023;42.680;23.132;2023-01-10T07:52:53;33.40;;;31.67;;
12194;SDS011;27023;42.680;23.132;2023-01-10T07:55:20;44.30;;;41.97;;
12194;SDS011;27023;42.680;23.132;2023-01-10T07:57:48;26.47;;;25.17;;
12194;SDS011;27023;42.680;23.132;2023-01-10T08:00:16;22.93;;;21.83;;
12194;SDS011;27023;42.680;23.132;2023-01-10T08:02:43;44.30;;;41.93;;
12194;SDS011;27023;42.680;23.132;2023-01-10T08:05:10;27.00;;;25.67;;
12194;SDS011;27023;42.680;23.132;2023-01-10T08:07:38;22.70;;;21.53;;
12194;SDS011;27023;42.680;23.132;2023-01-10T08:10:06;26.37;;;25.07;;
12194;SDS011;27023;42.680;23.132;2023-01-10T08:12:33;32.77;;;31.07;;
12194;SDS011;27023;42.680;23.132;2023-01-10T08:15:00;21.83;;;20.83;;
12194;SDS011;27023;42.680;23.132;2023-01-10T08:17:27;23.67;;;22.50;;
12194;SDS011;27023;42.680;23.132;2023-01-10T08:19:53;24.03;;;22.87;;
12194;SDS011;27023;42.680;23.132;2023-01-10T08:22:20;21.37;;;20.43;;
12194;SDS011;27023;42.680;23.132;2023-01-10T08:24:48;24.37;;;23.23;;
12194;SDS011;27023;42.680;23.132;2023-01-10T08:27:14;24.00;;;22.87;;
12194;SDS011;27023;42.680;23.132;2023-01-10T08:29:41;25.50;;;24.30;;
12194;SDS011;27023;42.680;23.132;2023-01-10T08:32:08;19.50;;;18.63;;
12194;SDS011;27023;42.680;23.132;2023-01-10T08:34:35;19.83;;;18.93;;
12194;SDS011;27023;42.680;23.132;2023-01-10T08:37:02;26.20;;;25.03;;
12194;SDS011;27023;42.680;23.132;2023-01-10T08:39:29;32.03;;;30.37;;
12194;SDS011;27023;42.680;23.132;2023-01-10T08:41:57;34.30;;;32.43;;
12194;SDS011;27023;42.680;23.132;2023-01-10T08:44:24;27.33;;;26.13;;
12194;SDS011;27023;42.680;23.132;2023-01-10T08:46:51;19.30;;;18.40;;
12194;SDS011;27023;42.680;23.132;2023-01-10T08:49:18;27.33;;;25.87;;
12194;SDS011;27023;42.680;23.132;2023-01-10T08:51:44;30.23;;;28.73;;
12194;SDS011;27023;42.680;23.132;2023-01-10T08:54:11;19.13;;;18.23;;
12194;SDS011;27023;42.680;23.132;2023-01-10T08:56:38;18.00;;;17.00;;
12194;SDS011;27023;42.680;23.132;2023-01-10T08:59:06;18.87;;;18.00;;
12194;SDS011;27023;42.680;23.132;2023-01-10T09:01:33;34.07;;;32.27;;
12194;SDS011;27023;42.680;23.132;2023-01-10T09:04:00;23.83;;;22.63;;
12194;SDS011;27023;42.680;23.132;2023-01-10T09:06:27;37.87;;;35.93;;
12194;SDS011;27023;42.680;23.132;2023-01-10T09:08:53;38.97;;;36.87;;
12194;SDS011;27023;42.680;23.132;2023-01-10T09:11:20;30.70;;;29.17;;
12194;SDS011;27023;42.680;23.132;2023-01-10T09:13:47;37.87;;;35.60;;
12194;SDS011;27023;42.680;23.132;2023-01-10T09:16:16;39.00;;;37.00;;
12194;SDS011;27023;42.680;23.132;2023-01-10T09:18:44;46.40;;;44.03;;
12194;SDS011;27023;42.680;23.132;2023-01-10T09:21:11;25.67;;;24.37;;
12194;SDS011;27023;42.680;23.132;2023-01-10T09:23:38;40.60;;;38.40;;
12194;SDS011;27023;42.680;23.132;2023-01-10T09:26:05;43.53;;;41.23;;
12194;SDS011;27023;42.680;23.132;2023-01-10T09:28:32;42.47;;;40.27;;
12194;SDS011;27023;42.680;23.132;2023-01-10T09:30:58;28.53;;;27.13;;
12194;SDS011;27023;42.680;23.132;2023-01-10T09:33:29;29.33;;;27.90;;
12194;SDS011;27023;42.680;23.132;2023-01-10T09:35:56;37.67;;;35.70;;
12194;SDS011;27023;42.680;23.132;2023-01-10T09:38:23;24.07;;;22.87;;
12194;SDS011;27023;42.680;23.132;2023-01-10T09:40:56;26.20;;;24.87;;
12194;SDS011;27023;42.680;23.132;2023-01-10T09:43:36;33.90;;;32.20;;
12194;SDS011;27023;42.680;23.132;2023-01-10T09:46:13;36.23;;;34.37;;
12194;SDS011;27023;42.680;23.132;2023-01-10T09:48:48;19.60;;;18.80;;
12194;SDS011;27023;42.680;23.132;2023-01-10T09:51:27;34.13;;;32.37;;
12194;SDS011;27023;42.680;23.132;2023-01-10T09:54:00;30.60;;;29.10;;
12194;SDS011;27023;42.680;23.132;2023-01-10T09:56:30;30.20;;;28.70;;
12194;SDS011;27023;42.680;23.132;2023-01-10T09:58:59;36.40;;;34.63;;
12194;SDS011;27023;42.680;23.132;2023-01-10T10:01:28;47.37;;;44.97;;
12194;SDS011;27023;42.680;23.132;2023-01-10T10:04:04;52.43;;;49.63;;
12194;SDS011;27023;42.680;23.132;2023-01-10T10:06:40;45.30;;;43.00;;
12194;SDS011;27023;42.680;23.132;2023-01-10T10:09:07;44.60;;;42.23;;
12194;SDS011;27023;42.680;23.132;2023-01-10T10:14:33;43.83;;;41.57;;
12194;SDS011;27023;42.680;23.132;2023-01-10T10:17:15;46.53;;;44.13;;
12194;SDS011;27023;42.680;23.132;2023-01-10T10:19:57;50.87;;;48.13;;
12194;SDS011;27023;42.680;23.132;2023-01-10T10:22:35;52.10;;;49.47;;
12194;SDS011;27023;42.680;23.132;2023-01-10T10:25:13;49.60;;;46.93;;
12194;SDS011;27023;42.680;23.132;2023-01-10T10:27:53;53.97;;;51.23;;
12194;SDS011;27023;42.680;23.132;2023-01-10T10:30:37;43.43;;;41.17;;
12194;SDS011;27023;42.680;23.132;2023-01-10T10:33:19;36.70;;;34.80;;
12194;SDS011;27023;42.680;23.132;2023-01-10T10:36:00;37.80;;;35.83;;
12194;SDS011;27023;42.680;23.132;2023-01-10T10:38:30;22.93;;;21.83;;
12194;SDS011;27023;42.680;23.132;2023-01-10T10:41:00;21.27;;;20.27;;
12194;SDS011;27023;42.680;23.132;2023-01-10T10:43:29;22.97;;;21.77;;
12194;SDS011;27023;42.680;23.132;2023-01-10T10:45:59;25.00;;;23.80;;
12194;SDS011;27023;42.680;23.132;2023-01-10T10:48:30;31.43;;;29.80;;
12194;SDS011;27023;42.680;23.132;2023-01-10T10:51:01;36.37;;;34.47;;
12194;SDS011;27023;42.680;23.132;2023-01-10T10:53:30;33.73;;;32.10;;
12194;SDS011;27023;42.680;23.132;2023-01-10T10:55:59;40.67;;;38.63;;
12194;SDS011;27023;42.680;23.132;2023-01-10T10:58:27;42.00;;;39.87;;
12194;SDS011;27023;42.680;23.132;2023-01-10T11:00:56;21.00;;;19.93;;
12194;SDS011;27023;42.680;23.132;2023-01-10T11:03:24;19.13;;;18.27;;
12194;SDS011;27023;42.680;23.132;2023-01-10T11:05:54;29.40;;;28.00;;
12194;SDS011;27023;42.680;23.132;2023-01-10T11:08:23;21.70;;;20.73;;
12194;SDS011;27023;42.680;23.132;2023-01-10T11:10:52;21.27;;;20.27;;
12194;SDS011;27023;42.680;23.132;2023-01-10T11:13:24;16.67;;;15.97;;
12194;SDS011;27023;42.680;23.132;2023-01-10T11:16:00;17.47;;;16.77;;
12194;SDS011;27023;42.680;23.132;2023-01-10T11:18:29;20.73;;;19.77;;
12194;SDS011;27023;42.680;23.132;2023-01-10T11:20:57;13.33;;;12.83;;
12194;SDS011;27023;42.680;23.132;2023-01-10T11:23:32;26.20;;;25.00;;
12194;SDS011;27023;42.680;23.132;2023-01-10T11:26:06;16.70;;;15.90;;
12194;SDS011;27023;42.680;23.132;2023-01-10T11:28:35;13.83;;;13.23;;
12194;SDS011;27023;42.680;23.132;2023-01-10T11:31:03;18.60;;;17.70;;
12194;SDS011;27023;42.680;23.132;2023-01-10T11:33:30;20.33;;;19.43;;
12194;SDS011;27023;42.680;23.132;2023-01-10T11:36:01;13.90;;;13.40;;
12194;SDS011;27023;42.680;23.132;2023-01-10T11:38:30;15.00;;;14.40;;
12194;SDS011;27023;42.680;23.132;2023-01-10T11:40:59;18.63;;;17.87;;
12194;SDS011;27023;42.680;23.132;2023-01-10T11:43:28;20.60;;;19.67;;
12194;SDS011;27023;42.680;23.132;2023-01-10T11:45:58;14.90;;;14.27;;
12194;SDS011;27023;42.680;23.132;2023-01-10T11:48:31;20.83;;;19.83;;
12194;SDS011;27023;42.680;23.132;2023-01-10T11:51:13;20.13;;;19.30;;
12194;SDS011;27023;42.680;23.132;2023-01-10T11:53:44;19.40;;;18.50;;
12194;SDS011;27023;42.680;23.132;2023-01-10T11:56:21;18.53;;;17.73;;
12194;SDS011;27023;42.680;23.132;2023-01-10T11:58:49;16.53;;;15.77;;
12194;SDS011;27023;42.680;23.132;2023-01-10T12:01:24;23.87;;;22.67;;
12194;SDS011;27023;42.680;23.132;2023-01-10T12:03:54;13.47;;;12.87;;
12194;SDS011;27023;42.680;23.132;2023-01-10T12:06:22;14.70;;;14.07;;
12194;SDS011;27023;42.680;23.132;2023-01-10T12:08:50;18.03;;;17.27;;
12194;SDS011;27023;42.680;23.132;2023-01-10T12:11:24;16.13;;;15.40;;
12194;SDS011;27023;42.680;23.132;2023-01-10T12:13:54;15.27;;;14.57;;
12194;SDS011;27023;42.680;23.132;2023-01-10T12:16:23;21.17;;;20.20;;
12194;SDS011;27023;42.680;23.132;2023-01-10T12:18:52;17.57;;;16.80;;
12194;SDS011;27023;42.680;23.132;2023-01-10T12:21:25;18.67;;;17.90;;
12194;SDS011;27023;42.680;23.132;2023-01-10T12:24:01;17.87;;;16.97;;
12194;SDS011;27023;42.680;23.132;2023-01-10T12:26:31;21.20;;;20.17;;
12194;SDS011;27023;42.680;23.132;2023-01-10T12:29:00;17.30;;;16.50;;
12194;SDS011;27023;42.680;23.132;2023-01-10T12:31:32;16.23;;;15.50;;
12194;SDS011;27023;42.680;23.132;2023-01-10T12:34:02;16.07;;;15.43;;
12194;SDS011;27023;42.680;23.132;2023-01-10T12:36:37;19.90;;;19.07;;
12194;SDS011;27023;42.680;23.132;2023-01-10T12:39:12;19.80;;;18.97;;
12194;SDS011;27023;42.680;23.132;2023-01-10T12:41:43;17.70;;;16.90;;
12194;SDS011;27023;42.680;23.132;2023-01-10T12:44:35;17.50;;;16.80;;
12194;SDS011;27023;42.680;23.132;2023-01-10T12:47:09;23.67;;;22.63;;
12194;SDS011;27023;42.680;23.132;2023-01-10T12:49:44;27.47;;;26.17;;
12194;SDS011;27023;42.680;23.132;2023-01-10T12:52:17;30.77;;;29.23;;
12194;SDS011;27023;42.680;23.132;2023-01-10T12:54:53;18.47;;;17.63;;
12194;SDS011;27023;42.680;23.132;2023-01-10T12:57:22;26.93;;;25.47;;
12194;SDS011;27023;42.680;23.132;2023-01-10T12:59:53;21.50;;;20.47;;
12194;SDS011;27023;42.680;23.132;2023-01-10T13:02:23;22.57;;;21.43;;
12194;SDS011;27023;42.680;23.132;2023-01-10T13:04:54;20.97;;;20.07;;
12194;SDS011;27023;42.680;23.132;2023-01-10T13:07:24;20.97;;;19.83;;
12194;SDS011;27023;42.680;23.132;2023-01-10T13:09:57;19.93;;;19.10;;
12194;SDS011;27023;42.680;23.132;2023-01-10T13:12:27;20.30;;;19.33;;
12194;SDS011;27023;42.680;23.132;2023-01-10T13:15:00;18.63;;;17.80;;
12194;SDS011;27023;42.680;23.132;2023-01-10T13:17:37;18.07;;;17.27;;
12194;SDS011;27023;42.680;23.132;2023-01-10T13:23:11;16.10;;;15.40;;
12194;SDS011;27023;42.680;23.132;2023-01-10T13:25:56;19.07;;;18.30;;
12194;SDS011;27023;42.680;23.132;2023-01-10T13:28:26;22.33;;;21.33;;
12194;SDS011;27023;42.680;23.132;2023-01-10T13:30:55;24.97;;;23.83;;
12194;SDS011;27023;42.680;23.132;2023-01-10T13:33:25;14.63;;;14.07;;
12194;SDS011;27023;42.680;23.132;2023-01-10T13:35:55;20.00;;;19.17;;
12194;SDS011;27023;42.680;23.132;2023-01-10T13:38:33;21.97;;;20.93;;
12194;SDS011;27023;42.680;23.132;2023-01-10T13:41:07;23.40;;;22.20;;
12194;SDS011;27023;42.680;23.132;2023-01-10T13:44:00;22.90;;;21.90;;
12194;SDS011;27023;42.680;23.132;2023-01-10T13:46:32;20.87;;;19.97;;
12194;SDS011;27023;42.680;23.132;2023-01-10T13:58:01;40.23;;;38.03;;
12194;SDS011;27023;42.680;23.132;2023-01-10T14:03:42;30.27;;;28.90;;
12194;SDS011;27023;42.680;23.132;2023-01-10T14:06:13;30.93;;;29.47;;
12194;SDS011;27023;42.680;23.132;2023-01-10T14:08:48;44.43;;;42.13;;
12194;SDS011;27023;42.680;23.132;2023-01-10T14:11:17;36.57;;;34.70;;
12194;SDS011;27023;42.680;23.132;2023-01-10T14:13:49;26.33;;;25.13;;
12194;SDS011;27023;42.680;23.132;2023-01-10T14:16:28;33.83;;;32.13;;
12194;SDS011;27023;42.680;23.132;2023-01-10T14:18:58;39.43;;;37.43;;
12194;SDS011;27023;42.680;23.132;2023-01-10T14:21:28;35.73;;;33.93;;
12194;SDS011;27023;42.680;23.132;2023-01-10T14:23:56;34.17;;;32.40;;
12194;SDS011;27023;42.680;23.132;2023-01-10T14:26:26;33.37;;;31.63;;
12194;SDS011;27023;42.680;23.132;2023-01-10T14:28:59;46.90;;;44.37;;
12194;SDS011;27023;42.680;23.132;2023-01-10T14:31:30;42.63;;;40.53;;
12194;SDS011;27023;42.680;23.132;2023-01-10T14:34:00;43.43;;;41.17;;
12194;SDS011;27023;42.680;23.132;2023-01-10T14:36:30;51.17;;;48.43;;
12194;SDS011;27023;42.680;23.132;2023-01-10T14:39:04;40.40;;;38.30;;
12194;SDS011;27023;42.680;23.132;2023-01-10T14:41:33;57.33;;;54.23;;
12194;SDS011;27023;42.680;23.132;2023-01-10T14:44:07;41.80;;;39.60;;
12194;SDS011;27023;42.680;23.132;2023-01-10T14:46:41;56.77;;;53.87;;